Time;durP1;ratioP1;P1;durP2;ratioP2;P2;SDS_P1;SDS_P2;PMS_P1;PMS_P2;Temp;Humidity;BMP_temperature;BMP_pressure;BME280_temperature;BME280_humidity;BME280_pressure;Samples;Min_cycle;Max_cycle;Signal;HPM_P1;HPM_P2
2023/03/16 00:00:45;;;;;;;12.73;7.37;;;;;;;4.76;69.62;101098.22;5057463;28;20216;-68
2023/03/16 00:03:17;;;;;;;16.73;8.23;;;;;;;4.69;69.94;101104.78;5054944;28;20214;-68
2023/03/16 00:05:46;;;;;;;12.13;7.57;;;;;;;4.63;70.05;101101.72;5054884;28;20212;-67
2023/03/16 00:08:15;;;;;;;13.47;7.37;;;;;;;4.60;70.05;101102.72;5052908;28;20230;-67
2023/03/16 00:10:45;;;;;;;13.83;7.03;;;;;;;4.60;70.22;101097.47;5054812;28;20210;-67
2023/03/16 00:13:14;;;;;;;14.37;7.33;;;;;;;4.64;70.09;101101.63;5054780;28;21327;-68
2023/03/16 00:15:42;;;;;;;14.00;7.53;;;;;;;4.57;70.25;101087.19;5050842;28;20219;-66
2023/03/16 00:18:09;;;;;;;12.63;6.97;;;;;;;4.56;70.30;101097.78;5053084;28;20222;-69
2023/03/16 00:20:38;;;;;;;13.60;7.00;;;;;;;4.53;70.34;101094.38;5056000;28;20204;-68
2023/03/16 00:23:06;;;;;;;12.90;7.43;;;;;;;4.46;70.27;101097.50;5054469;28;20251;-68
2023/03/16 00:25:34;;;;;;;15.03;7.20;;;;;;;4.43;70.46;101103.75;5053268;28;20237;-67
2023/03/16 00:28:02;;;;;;;13.93;7.17;;;;;;;4.46;70.57;101100.13;5053699;28;20646;-68
2023/03/16 00:30:30;;;;;;;13.53;7.60;;;;;;;4.58;69.96;101107.22;5054922;28;20775;-68
2023/03/16 00:32:58;;;;;;;16.10;7.43;;;;;;;4.49;70.27;101107.78;5057995;28;20210;-67
2023/03/16 00:35:25;;;;;;;12.73;6.87;;;;;;;4.47;70.36;101107.06;5056090;28;20305;-67
2023/03/16 00:37:56;;;;;;;11.00;6.80;;;;;;;4.42;70.54;101096.81;5071353;28;20252;-67
2023/03/16 00:40:24;;;;;;;12.97;7.33;;;;;;;4.43;70.49;101095.88;5073596;28;20579;-67
2023/03/16 00:42:53;;;;;;;12.90;7.40;;;;;;;4.38;70.50;101092.72;5074729;28;20217;-67
2023/03/16 00:45:22;;;;;;;11.03;7.13;;;;;;;4.32;70.48;101098.31;5076487;28;20302;-68
2023/03/16 00:47:53;;;;;;;16.50;7.80;;;;;;;4.27;70.64;101096.91;5075008;28;20222;-67
2023/03/16 00:50:21;;;;;;;12.40;7.27;;;;;;;4.23;70.64;101098.03;5074967;28;20214;-67
2023/03/16 00:52:52;;;;;;;13.27;7.27;;;;;;;4.19;70.78;101100.00;5074852;28;20228;-67
2023/03/16 00:55:21;;;;;;;13.17;7.03;;;;;;;4.24;70.72;101091.84;5073239;28;20210;-68
2023/03/16 00:57:49;;;;;;;14.17;7.40;;;;;;;4.26;70.34;101082.09;5076165;28;20222;-68
2023/03/16 01:00:19;;;;;;;13.90;7.33;;;;;;;4.23;70.40;101090.16;5072138;28;20217;-68
2023/03/16 01:02:47;;;;;;;13.30;7.40;;;;;;;4.34;69.94;101085.09;5073716;28;21291;-68
2023/03/16 01:05:15;;;;;;;13.57;6.90;;;;;;;4.31;69.83;101080.06;5074400;28;20221;-68
2023/03/16 01:07:44;;;;;;;13.43;7.57;;;;;;;4.33;70.02;101075.53;5072477;28;20236;-68
2023/03/16 01:10:13;;;;;;;11.47;6.77;;;;;;;4.51;69.26;101074.41;5074217;28;20209;-69
2023/03/16 01:12:44;;;;;;;13.10;6.90;;;;;;;4.38;69.45;101068.22;5076877;28;20213;-68
2023/03/16 01:15:12;;;;;;;13.13;6.47;;;;;;;4.32;69.96;101073.84;5073635;28;20741;-69
2023/03/16 01:17:40;;;;;;;13.60;7.53;;;;;;;4.24;70.29;101076.09;5075438;28;20209;-69
2023/03/16 01:20:12;;;;;;;14.60;7.43;;;;;;;4.15;70.51;101075.72;5074146;28;20217;-68
2023/03/16 01:22:41;;;;;;;11.90;7.60;;;;;;;4.06;70.78;101080.66;5073492;28;20219;-68
2023/03/16 01:25:11;;;;;;;14.97;8.20;;;;;;;4.04;70.98;101083.41;5074357;28;20952;-68
2023/03/16 01:27:39;;;;;;;13.13;7.67;;;;;;;4.00;71.00;101078.41;5074122;28;20965;-67
2023/03/16 01:30:11;;;;;;;14.10;8.03;;;;;;;3.92;71.09;101081.50;5073623;28;20309;-67
2023/03/16 01:32:39;;;;;;;13.20;7.40;;;;;;;3.86;71.27;101079.25;5074093;28;20209;-67
2023/03/16 01:35:08;;;;;;;13.60;7.73;;;;;;;3.88;71.11;101087.84;5073483;28;20300;-68
2023/03/16 01:37:35;;;;;;;14.33;8.13;;;;;;;4.02;70.45;101081.81;5073908;28;20241;-67
2023/03/16 01:40:05;;;;;;;13.33;7.87;;;;;;;4.11;69.93;101070.75;5073650;28;20216;-67
2023/03/16 01:42:44;;;;;;;14.77;8.27;;;;;;;4.02;70.09;101074.78;5072427;28;20210;-68
2023/03/16 01:45:45;;;;;;;13.00;7.70;;;;;;;3.96;70.47;101069.06;5072850;28;20221;-68
2023/03/16 01:48:14;;;;;;;13.27;7.83;;;;;;;3.85;70.62;101069.69;5070593;28;20228;-68
2023/03/16 01:50:42;;;;;;;15.40;7.70;;;;;;;3.83;70.75;101063.69;5073014;28;20215;-68
2023/03/16 01:53:10;;;;;;;13.43;7.43;;;;;;;3.91;70.65;101056.19;5075174;28;20730;-67
2023/03/16 01:55:38;;;;;;;14.93;8.23;;;;;;;3.94;70.26;101058.66;5075259;28;20218;-67
2023/03/16 01:58:06;;;;;;;15.03;7.57;;;;;;;3.85;70.47;101061.81;5077684;28;20223;-68
2023/03/16 02:00:33;;;;;;;14.63;8.37;;;;;;;3.76;70.92;101059.72;5076852;28;20215;-67
2023/03/16 02:03:07;;;;;;;17.30;9.07;;;;;;;3.73;70.93;101055.50;5077030;28;20211;-67
2023/03/16 02:05:44;;;;;;;14.87;7.70;;;;;;;3.77;71.09;101053.56;5078616;28;20677;-69
2023/03/16 02:08:12;;;;;;;13.80;7.93;;;;;;;3.72;71.08;101047.72;5078033;28;20239;-68
2023/03/16 02:10:40;;;;;;;14.17;7.93;;;;;;;3.89;70.63;101037.06;5080119;28;20573;-67
2023/03/16 02:13:08;;;;;;;17.07;8.03;;;;;;;4.13;69.44;101043.44;5080212;28;20671;-67
2023/03/16 02:15:36;;;;;;;16.27;7.90;;;;;;;4.29;68.47;101034.66;5077308;28;20217;-67
2023/03/16 02:18:06;;;;;;;16.90;8.47;;;;;;;4.30;68.08;101029.31;5080869;28;20292;-66
2023/03/16 02:20:42;;;;;;;14.83;8.33;;;;;;;4.09;69.30;101031.47;5077946;28;20241;-67
2023/03/16 02:23:17;;;;;;;16.97;8.70;;;;;;;3.92;70.15;101025.56;5078144;28;20207;-68
2023/03/16 02:25:53;;;;;;;14.20;7.87;;;;;;;3.89;70.68;101021.31;5075199;28;20340;-67
2023/03/16 02:28:28;;;;;;;16.33;7.90;;;;;;;3.94;70.56;101013.19;5074551;28;20231;-67
2023/03/16 02:30:57;;;;;;;14.80;8.90;;;;;;;4.01;70.22;101017.97;5073747;28;20212;-67
2023/03/16 02:33:26;;;;;;;14.97;8.57;;;;;;;4.12;69.65;101005.03;5076439;28;20219;-67
2023/03/16 02:35:54;;;;;;;13.00;7.50;;;;;;;4.25;69.01;101014.78;5077688;28;20285;-67
2023/03/16 02:38:21;;;;;;;15.00;8.57;;;;;;;4.10;69.35;101017.41;5075123;28;20236;-67
2023/03/16 02:40:57;;;;;;;15.80;7.33;;;;;;;3.97;69.98;101023.47;5076727;28;20265;-67
2023/03/16 02:43:28;;;;;;;14.93;8.33;;;;;;;3.82;70.44;101025.25;5075177;28;20274;-69
2023/03/16 02:46:02;;;;;;;17.20;7.63;;;;;;;3.68;70.79;101023.47;5077752;28;20658;-67
2023/03/16 02:48:33;;;;;;;12.40;7.93;;;;;;;3.68;70.96;101020.00;5077261;28;20243;-67
2023/03/16 02:51:00;;;;;;;15.27;8.37;;;;;;;3.58;71.36;101024.09;5076473;28;20205;-68
2023/03/16 02:53:28;;;;;;;15.53;8.23;;;;;;;3.62;71.34;101015.09;5076713;28;20219;-68
2023/03/16 02:55:56;;;;;;;14.50;7.83;;;;;;;3.66;71.77;101006.13;5078897;28;20216;-67
2023/03/16 02:58:23;;;;;;;15.57;8.77;;;;;;;3.91;70.55;101006.34;5075971;28;20580;-66
2023/03/16 03:00:52;;;;;;;13.77;8.37;;;;;;;4.00;70.23;101000.53;5075527;28;20208;-68
2023/03/16 03:03:21;;;;;;;14.30;7.53;;;;;;;3.98;70.31;101001.56;5075424;28;20256;-68
2023/03/16 03:05:49;;;;;;;11.93;7.70;;;;;;;3.82;70.84;101000.78;5076260;28;20209;-68
2023/03/16 03:08:19;;;;;;;15.13;7.83;;;;;;;3.81;71.29;100994.72;5076319;28;20235;-68
2023/03/16 03:10:46;;;;;;;13.77;8.13;;;;;;;3.83;71.15;100997.25;5072317;28;20223;-68
2023/03/16 03:13:14;;;;;;;17.17;7.73;;;;;;;3.79;70.99;100991.31;5078454;28;20557;-67
2023/03/16 03:15:42;;;;;;;15.17;7.63;;;;;;;3.72;71.24;100990.84;5076403;28;20216;-66
2023/03/16 03:18:09;;;;;;;17.63;8.53;;;;;;;3.65;71.63;100989.53;5077304;28;20983;-67
2023/03/16 03:20:38;;;;;;;11.93;7.60;;;;;;;3.59;71.71;100992.53;5075860;28;20224;-68
2023/03/16 03:23:06;;;;;;;15.93;8.23;;;;;;;3.57;72.14;100986.53;5074025;28;20342;-68
2023/03/16 03:25:34;;;;;;;17.23;8.97;;;;;;;3.54;72.34;100991.09;5077174;28;20221;-68
2023/03/16 03:28:04;;;;;;;13.53;7.47;;;;;;;3.62;71.70;100989.72;5075258;28;20229;-68
2023/03/16 03:30:32;;;;;;;12.70;7.13;;;;;;;3.72;71.80;100988.22;5074418;28;20220;-68
2023/03/16 03:33:00;;;;;;;14.83;7.97;;;;;;;3.84;71.08;100981.41;5075914;28;20225;-68
2023/03/16 03:35:28;;;;;;;16.77;8.10;;;;;;;3.74;71.43;100975.03;5076957;28;20211;-66
2023/03/16 03:37:57;;;;;;;11.47;7.50;;;;;;;3.73;71.83;100970.72;5074102;28;20872;-67
2023/03/16 03:40:25;;;;;;;15.47;8.60;;;;;;;3.73;71.76;100975.97;5073630;28;20216;-67
2023/03/16 03:42:53;;;;;;;14.87;7.83;;;;;;;3.63;71.99;100974.81;5074731;28;20204;-66
2023/03/16 03:45:20;;;;;;;14.87;7.93;;;;;;;3.58;72.18;100977.72;5073955;28;20227;-68
2023/03/16 03:47:48;;;;;;;13.27;7.43;;;;;;;3.54;72.23;100975.38;5072523;28;20213;-67
2023/03/16 03:50:16;;;;;;;13.23;8.47;;;;;;;3.50;72.33;100981.75;5074341;28;20209;-67
2023/03/16 03:52:44;;;;;;;16.70;8.30;;;;;;;3.45;72.88;100963.66;5078409;28;20585;-67
2023/03/16 03:55:13;;;;;;;16.03;8.23;;;;;;;3.51;72.83;100971.16;5075353;28;20204;-67
2023/03/16 03:57:41;;;;;;;16.23;9.07;;;;;;;3.51;72.49;100965.06;5075986;28;20207;-68
2023/03/16 04:00:10;;;;;;;17.13;8.50;;;;;;;3.48;72.48;100978.38;5075467;28;20209;-68
2023/03/16 04:02:38;;;;;;;14.93;8.17;;;;;;;3.55;71.97;100969.19;5077755;28;20826;-67
2023/03/16 04:05:07;;;;;;;16.80;9.40;;;;;;;3.51;72.28;100975.56;5076709;28;20667;-68
2023/03/16 04:07:35;;;;;;;15.53;8.30;;;;;;;3.48;72.19;100971.34;5078447;28;20224;-68
2023/03/16 04:10:03;;;;;;;14.20;8.03;;;;;;;3.47;72.36;100979.28;5072228;28;20221;-68
2023/03/16 04:12:32;;;;;;;13.83;8.27;;;;;;;3.44;72.54;100968.97;5073539;28;20210;-67
2023/03/16 04:15:00;;;;;;;18.53;9.23;;;;;;;3.37;72.97;100966.72;5072835;28;20299;-68
2023/03/16 04:17:27;;;;;;;15.20;8.50;;;;;;;3.38;72.87;100976.28;5074929;28;20217;-68
2023/03/16 04:19:55;;;;;;;16.53;8.00;;;;;;;3.39;72.81;100972.72;5073539;28;20219;-66
2023/03/16 04:22:23;;;;;;;19.67;9.00;;;;;;;3.39;72.78;100977.97;5077580;28;20204;-68
2023/03/16 04:24:51;;;;;;;16.03;8.37;;;;;;;3.41;73.02;100985.75;5074178;28;20682;-66
2023/03/16 04:27:21;;;;;;;13.63;8.23;;;;;;;3.37;73.31;100979.81;5075794;28;20228;-69
2023/03/16 04:29:54;;;;;;;14.60;8.47;;;;;;;3.45;73.10;100982.00;5074844;28;20232;-68
2023/03/16 04:32:25;;;;;;;14.67;8.60;;;;;;;3.50;72.77;100976.50;5076193;28;20285;-67
2023/03/16 04:34:54;;;;;;;19.10;9.83;;;;;;;3.51;72.66;100972.94;5074065;28;20215;-67
2023/03/16 04:37:22;;;;;;;13.40;8.20;;;;;;;3.49;73.17;100972.19;5074139;28;20327;-68
2023/03/16 04:39:50;;;;;;;17.13;9.50;;;;;;;3.45;73.40;100983.78;5075179;28;20225;-69
2023/03/16 04:42:18;;;;;;;19.27;9.37;;;;;;;3.42;73.46;100987.44;5072113;28;20205;-68
2023/03/16 04:44:46;;;;;;;18.33;8.83;;;;;;;3.44;73.75;100984.69;5076012;28;20207;-67
2023/03/16 04:47:16;;;;;;;16.97;8.53;;;;;;;3.47;73.41;100984.53;5074722;28;20839;-68
2023/03/16 04:49:45;;;;;;;17.17;8.90;;;;;;;3.55;73.35;100977.91;5073889;28;20984;-67
2023/03/16 04:52:13;;;;;;;13.40;7.70;;;;;;;3.75;72.18;100972.31;5074770;28;20269;-69
2023/03/16 04:54:41;;;;;;;18.17;8.87;;;;;;;4.03;70.76;100982.00;5077700;28;20213;-67
2023/03/16 04:57:08;;;;;;;17.97;9.43;;;;;;;4.10;70.17;100980.66;5074255;28;20215;-67
2023/03/16 04:59:36;;;;;;;14.93;8.30;;;;;;;4.02;70.50;100972.44;5078642;28;20714;-68
2023/03/16 05:02:04;;;;;;;19.37;8.87;;;;;;;4.12;70.16;100970.94;5076857;28;20217;-67
2023/03/16 05:04:33;;;;;;;14.93;9.03;;;;;;;4.10;69.99;100962.28;5071937;28;20220;-67
2023/03/16 05:07:01;;;;;;;23.77;11.20;;;;;;;4.06;69.95;100968.66;5074264;28;20328;-68
2023/03/16 05:09:28;;;;;;;16.67;8.87;;;;;;;3.86;70.71;100963.81;5073194;28;20237;-68
2023/03/16 05:11:56;;;;;;;15.10;8.47;;;;;;;3.69;71.56;100958.75;5072247;28;20207;-68
2023/03/16 05:14:24;;;;;;;13.60;8.43;;;;;;;3.57;72.41;100962.09;5074491;28;20212;-68
2023/03/16 05:16:52;;;;;;;16.10;8.37;;;;;;;3.53;72.59;100958.78;5074711;28;20208;-68
2023/03/16 05:19:20;;;;;;;16.17;8.43;;;;;;;3.44;72.64;100963.72;5073184;28;20205;-67
2023/03/16 05:21:49;;;;;;;16.57;8.20;;;;;;;3.43;72.94;100962.06;5072706;28;20881;-67
2023/03/16 05:24:17;;;;;;;16.50;8.50;;;;;;;3.49;72.49;100962.53;5074833;28;20208;-67
2023/03/16 05:26:44;;;;;;;21.63;8.23;;;;;;;3.48;72.84;100965.25;5071749;28;20231;-67
2023/03/16 05:29:12;;;;;;;17.10;8.30;;;;;;;3.50;72.60;100956.38;5073159;28;20358;-68
2023/03/16 05:31:40;;;;;;;14.73;9.40;;;;;;;3.57;72.65;100955.06;5075856;28;20287;-67
2023/03/16 05:34:07;;;;;;;16.30;8.90;;;;;;;3.56;72.60;100952.53;5076376;28;20211;-67
2023/03/16 05:36:35;;;;;;;21.50;9.40;;;;;;;3.69;71.99;100949.06;5073046;28;20231;-68
2023/03/16 05:39:07;;;;;;;15.27;8.77;;;;;;;3.76;71.49;100960.03;5075776;28;20307;-67
2023/03/16 05:41:34;;;;;;;13.97;8.50;;;;;;;3.73;71.60;100950.56;5074076;28;20219;-68
2023/03/16 05:44:03;;;;;;;23.00;9.60;;;;;;;3.62;71.72;100946.91;5073407;28;20303;-68
2023/03/16 05:46:32;;;;;;;15.77;8.70;;;;;;;3.54;72.80;100946.53;5074541;28;20253;-68
2023/03/16 05:48:59;;;;;;;18.33;9.57;;;;;;;3.64;72.68;100942.41;5075486;28;20209;-67
2023/03/16 05:51:27;;;;;;;18.37;9.93;;;;;;;3.61;72.76;100937.34;5072968;28;20885;-68
2023/03/16 05:53:56;;;;;;;15.70;8.47;;;;;;;3.73;72.38;100942.72;5077753;28;20717;-67
2023/03/16 05:56:26;;;;;;;17.13;8.63;;;;;;;3.68;72.55;100930.81;5074293;28;20218;-67
2023/03/16 05:58:55;;;;;;;15.47;8.50;;;;;;;3.64;72.72;100934.53;5074322;28;20208;-68
2023/03/16 06:01:24;;;;;;;18.23;8.90;;;;;;;3.77;72.43;100932.88;5075759;28;20209;-68
2023/03/16 06:03:52;;;;;;;17.27;9.23;;;;;;;3.83;72.28;100931.66;5075953;28;20221;-69
2023/03/16 06:06:22;;;;;;;21.40;8.47;;;;;;;3.97;71.31;100915.88;5075311;28;20303;-68
2023/03/16 06:08:49;;;;;;;19.07;9.27;;;;;;;3.81;72.14;100913.38;5073456;28;20201;-68
2023/03/16 06:11:17;;;;;;;15.57;8.90;;;;;;;3.68;72.48;100915.09;5072615;28;20324;-68
2023/03/16 06:13:46;;;;;;;17.83;8.93;;;;;;;3.61;72.99;100914.59;5073197;28;20212;-67
2023/03/16 06:16:15;;;;;;;16.33;9.20;;;;;;;3.59;73.36;100923.50;5074698;28;20212;-67
2023/03/16 06:18:43;;;;;;;14.27;8.53;;;;;;;3.53;73.53;100927.31;5072005;28;20213;-68
2023/03/16 06:21:11;;;;;;;18.97;9.43;;;;;;;3.56;73.86;100939.41;5072566;28;20209;-68
2023/03/16 06:23:38;;;;;;;20.87;10.63;;;;;;;3.60;73.59;100933.06;5076098;28;20614;-67
2023/03/16 06:26:06;;;;;;;18.93;9.63;;;;;;;3.61;73.49;100930.31;5075159;28;20217;-68
2023/03/16 06:28:34;;;;;;;22.00;9.97;;;;;;;3.73;73.17;100928.75;5071690;28;20253;-69
2023/03/16 06:31:03;;;;;;;19.20;10.53;;;;;;;3.84;72.66;100939.44;5079292;28;20772;-69
2023/03/16 06:33:31;;;;;;;18.53;9.80;;;;;;;3.84;73.08;100942.06;5075754;28;20590;-68
2023/03/16 06:35:58;;;;;;;22.00;11.00;;;;;;;4.02;72.89;100946.19;5076261;28;20237;-68
2023/03/16 06:38:26;;;;;;;19.23;10.60;;;;;;;3.96;72.88;100948.34;5073561;28;21203;-67
2023/03/16 06:40:54;;;;;;;17.57;9.37;;;;;;;3.99;72.82;100951.59;5076045;28;20201;-67
2023/03/16 06:43:22;;;;;;;17.27;9.33;;;;;;;3.97;72.62;100942.97;5078032;28;20694;-68
2023/03/16 06:45:50;;;;;;;23.13;9.70;;;;;;;3.94;72.71;100948.44;5080890;28;20209;-67
2023/03/16 06:48:19;;;;;;;16.30;8.50;;;;;;;3.94;73.10;100951.06;5079203;28;20208;-68
2023/03/16 06:50:47;;;;;;;16.87;9.33;;;;;;;4.03;73.34;100953.13;5075198;28;20233;-77
2023/03/16 06:53:15;;;;;;;23.77;10.53;;;;;;;4.14;73.26;100955.91;5081976;28;20323;-77
2023/03/16 06:55:43;;;;;;;16.13;8.87;;;;;;;4.38;72.34;100947.44;5087367;28;20219;-78
2023/03/16 06:58:11;;;;;;;16.30;9.33;;;;;;;4.55;71.86;100949.84;5085355;28;20237;-77
2023/03/16 07:00:39;;;;;;;15.43;9.70;;;;;;;4.68;71.33;100949.88;5083629;28;20208;-80
2023/03/16 07:03:07;;;;;;;21.23;10.50;;;;;;;4.74;71.07;100939.84;5083902;28;20217;-78
2023/03/16 07:05:36;;;;;;;19.13;10.43;;;;;;;4.73;71.74;100932.06;5082352;28;20212;-80
2023/03/16 07:08:04;;;;;;;21.90;11.10;;;;;;;4.90;70.86;100939.69;5084423;28;20231;-78
2023/03/16 07:10:33;;;;;;;20.27;11.00;;;;;;;4.95;70.92;100940.19;5085986;28;20237;-79
2023/03/16 07:13:01;;;;;;;23.83;11.93;;;;;;;4.98;70.92;100941.78;5081482;28;20216;-76
2023/03/16 07:15:28;;;;;;;23.17;12.40;;;;;;;4.99;71.02;100939.06;5083686;28;20213;-77
2023/03/16 07:17:56;;;;;;;20.73;12.17;;;;;;;4.94;71.47;100941.16;5083475;28;20221;-77
2023/03/16 07:20:25;;;;;;;23.13;12.17;;;;;;;4.97;71.45;100946.22;5084842;28;20217;-77
2023/03/16 07:22:56;;;;;;;18.27;12.00;;;;;;;5.00;71.42;100945.19;5079599;28;20283;-75
2023/03/16 07:25:25;;;;;;;20.30;10.50;;;;;;;5.08;70.96;100953.41;5078114;28;20928;-76
2023/03/16 07:27:53;;;;;;;24.23;11.80;;;;;;;5.17;70.79;100952.78;5082119;28;20206;-76
2023/03/16 07:30:20;;;;;;;22.97;12.17;;;;;;;5.16;70.85;100951.09;5083593;28;20924;-76
2023/03/16 07:32:48;;;;;;;20.27;11.80;;;;;;;5.23;71.12;100958.47;5062980;28;20228;-76
2023/03/16 07:35:17;;;;;;;25.50;12.83;;;;;;;5.28;71.05;100959.00;5079158;28;20607;-76
2023/03/16 07:37:46;;;;;;;22.07;12.97;;;;;;;5.41;70.99;100955.56;5081031;28;20250;-74
2023/03/16 07:40:18;;;;;;;21.90;13.10;;;;;;;5.53;70.48;100952.94;5078223;28;20297;-76
2023/03/16 07:42:46;;;;;;;24.37;13.67;;;;;;;5.61;70.31;100955.91;5081486;28;20234;-76
2023/03/16 07:45:16;;;;;;;24.47;13.93;;;;;;;5.72;69.63;100955.13;5078644;28;20216;-76
2023/03/16 07:47:45;;;;;;;23.83;12.73;;;;;;;5.87;68.92;100948.00;5081255;28;20289;-77
2023/03/16 07:50:15;;;;;;;25.20;13.47;;;;;;;5.98;69.03;100950.78;5079931;28;20261;-77
2023/03/16 07:52:45;;;;;;;22.00;12.80;;;;;;;6.08;68.19;100951.78;5084433;28;20864;-75
2023/03/16 07:55:15;;;;;;;25.20;13.40;;;;;;;6.06;68.65;100948.44;5061314;28;21219;-75
2023/03/16 07:57:46;;;;;;;24.20;13.50;;;;;;;6.09;68.60;100950.84;5077642;28;20711;-75
2023/03/16 08:00:16;;;;;;;24.17;14.17;;;;;;;6.16;68.35;100951.25;5058778;28;20727;-75
2023/03/16 08:02:44;;;;;;;23.93;13.43;;;;;;;6.21;67.73;100947.34;5080715;28;20211;-76
2023/03/16 08:05:14;;;;;;;23.30;14.30;;;;;;;6.24;67.72;100955.03;5080695;28;20252;-76
2023/03/16 08:07:42;;;;;;;22.77;14.67;;;;;;;6.26;67.76;100950.47;5083860;28;20231;-75
2023/03/16 08:10:11;;;;;;;21.40;13.60;;;;;;;6.51;66.66;100956.66;5076014;28;20581;-75
2023/03/16 08:12:42;;;;;;;21.23;13.57;;;;;;;6.56;66.35;100946.63;5061267;28;20789;-76
2023/03/16 08:15:11;;;;;;;20.70;14.53;;;;;;;6.69;66.15;100947.41;5079078;28;20347;-77
2023/03/16 08:17:40;;;;;;;19.00;11.83;;;;;;;6.86;65.62;100944.38;5081263;28;20215;-77
2023/03/16 08:20:12;;;;;;;23.60;12.83;;;;;;;7.00;65.54;100941.56;5085594;28;20301;-77
2023/03/16 08:22:45;;;;;;;18.80;12.33;;;;;;;7.25;65.11;100943.22;5098822;28;20238;-78
2023/03/16 08:25:14;;;;;;;22.67;13.10;;;;;;;7.61;63.88;100938.75;5079328;28;20239;-72
2023/03/16 08:27:47;;;;;;;20.83;13.40;;;;;;;8.27;61.96;100946.66;5074500;28;20208;-72
2023/03/16 08:30:16;;;;;;;21.57;13.37;;;;;;;9.76;58.53;100939.59;5075325;28;20695;-72
2023/03/16 08:32:44;;;;;;;23.93;14.63;;;;;;;11.90;50.86;100937.91;5075394;28;20226;-71
2023/03/16 08:35:15;;;;;;;21.10;13.20;;;;;;;13.05;46.62;100936.38;5074857;28;20615;-73
2023/03/16 08:37:45;;;;;;;18.77;13.23;;;;;;;13.27;45.22;100924.47;5076287;28;20714;-74
2023/03/16 08:40:15;;;;;;;19.93;12.90;;;;;;;13.09;45.59;100921.78;5076698;28;20261;-76
2023/03/16 08:42:43;;;;;;;18.30;12.20;;;;;;;12.92;45.85;100919.97;5077593;28;20330;-75
2023/03/16 08:45:13;;;;;;;20.80;13.00;;;;;;;12.83;45.97;100918.22;5077689;28;20207;-75
2023/03/16 08:47:41;;;;;;;21.73;13.63;;;;;;;12.87;46.20;100905.44;5078586;28;20851;-75
2023/03/16 08:50:11;;;;;;;21.80;13.03;;;;;;;12.64;47.49;100910.38;5074465;28;20215;-72
2023/03/16 08:52:41;;;;;;;17.77;12.73;;;;;;;12.69;46.28;100903.59;5085962;28;20864;-78
2023/03/16 08:55:10;;;;;;;18.37;11.67;;;;;;;13.06;45.32;100913.25;5093442;28;20217;-75
2023/03/16 08:57:38;;;;;;;16.40;11.80;;;;;;;13.23;44.73;100911.59;5068401;28;20248;-76
2023/03/16 09:00:12;;;;;;;20.00;12.27;;;;;;;13.80;43.73;100910.16;5082830;28;20199;-77
2023/03/16 09:02:42;;;;;;;17.13;12.70;;;;;;;15.15;41.53;100911.72;5076289;28;20208;-75
2023/03/16 09:05:11;;;;;;;18.83;12.50;;;;;;;16.17;39.33;100911.91;5075734;28;20704;-75
2023/03/16 09:07:39;;;;;;;17.47;12.10;;;;;;;16.32;38.50;100908.47;5076136;28;20703;-77
2023/03/16 09:10:10;;;;;;;16.90;12.70;;;;;;;17.56;36.79;100904.56;5076574;28;20229;-77
2023/03/16 09:12:39;;;;;;;15.80;12.13;;;;;;;19.20;34.32;100909.47;5077303;28;20372;-76
2023/03/16 09:15:12;;;;;;;13.93;11.57;;;;;;;21.59;30.69;100903.03;5078420;28;20238;-79
2023/03/16 09:17:43;;;;;;;17.03;12.57;;;;;;;21.77;30.08;100897.81;5078816;28;20214;-77
2023/03/16 09:20:14;;;;;;;17.37;12.03;;;;;;;22.31;29.37;100899.34;5076821;28;20303;-77
2023/03/16 09:22:53;;;;;;;16.10;11.90;;;;;;;23.37;27.74;100894.91;5077412;28;20217;-77
2023/03/16 09:25:21;;;;;;;16.17;12.90;;;;;;;23.59;27.23;100892.66;5078164;28;20692;-78
2023/03/16 09:27:49;;;;;;;15.52;11.48;;;;;;;24.01;27.26;100885.56;5079373;28;20210;-78
2023/03/16 09:30:19;;;;;;;16.63;12.40;;;;;;;23.84;26.95;100874.47;5073002;28;20211;-76
2023/03/16 09:32:49;;;;;;;15.15;12.13;;;;;;;22.88;27.88;100877.59;5072950;28;20234;-76
2023/03/16 09:35:18;;;;;;;17.30;12.13;;;;;;;22.10;29.00;100879.66;5077845;28;20217;-76
2023/03/16 09:37:46;;;;;;;15.13;11.48;;;;;;;20.58;30.41;100884.25;5076760;28;20271;-75
2023/03/16 09:40:33;;;;;;;15.73;11.85;;;;;;;20.18;31.51;100885.13;5077667;28;20277;-76
2023/03/16 09:43:16;;;;;;;13.67;11.13;;;;;;;19.64;32.33;100877.78;5076163;28;20210;-75
2023/03/16 09:45:54;;;;;;;17.57;12.17;;;;;;;19.53;32.32;100884.53;5074392;28;20215;-77
2023/03/16 09:48:24;;;;;;;14.97;10.83;;;;;;;19.29;32.93;100881.44;5076474;28;20214;-76
2023/03/16 09:50:54;;;;;;;13.33;10.73;;;;;;;20.21;31.78;100880.19;5073941;28;20722;-77
2023/03/16 09:53:27;;;;;;;13.33;10.13;;;;;;;21.36;30.32;100874.63;5074829;28;20357;-77
2023/03/16 09:56:00;;;;;;;15.40;10.80;;;;;;;23.44;27.98;100876.75;5075644;28;20497;-77
2023/03/16 10:05:00;;;;;;;14.70;10.90;;;;;;;25.52;25.26;100847.22;5074573;28;20214;-77
2023/03/16 10:07:43;;;;;;;11.98;9.70;;;;;;;25.13;25.28;100837.09;5055063;28;20420;-77
2023/03/16 10:10:24;;;;;;;12.57;10.10;;;;;;;24.70;25.84;100838.16;5075444;28;20201;-76
2023/03/16 10:13:19;;;;;;;10.00;8.57;;;;;;;25.03;25.42;100837.66;5077506;28;20241;-74
2023/03/16 10:15:58;;;;;;;12.23;6.63;;;;;;;25.90;23.48;100838.56;5077716;28;20334;-77
2023/03/16 10:18:31;;;;;;;9.43;6.97;;;;;;;26.11;23.34;100834.41;5078696;28;20218;-76
2023/03/16 10:21:03;;;;;;;7.32;6.13;;;;;;;25.06;23.92;100827.19;5076401;28;20298;-76
2023/03/16 10:23:34;;;;;;;9.77;6.30;;;;;;;24.39;24.26;100828.38;5074038;28;20335;-76
2023/03/16 10:26:06;;;;;;;7.95;6.05;;;;;;;24.12;24.99;100837.88;5075740;28;20234;-75
2023/03/16 10:28:34;;;;;;;9.80;6.35;;;;;;;24.63;24.58;100829.28;5072202;28;20218;-74
2023/03/16 10:31:03;;;;;;;7.47;6.30;;;;;;;24.52;24.65;100840.94;5074133;28;20649;-75
2023/03/16 10:33:33;;;;;;;13.38;6.40;;;;;;;25.15;23.84;100834.97;5076449;28;20327;-75
2023/03/16 10:36:10;;;;;;;11.52;6.18;;;;;;;25.75;23.04;100838.25;5078189;28;20712;-76
2023/03/16 10:38:45;;;;;;;7.57;6.43;;;;;;;25.59;23.33;100837.13;5074359;28;20292;-76
2023/03/16 10:41:24;;;;;;;9.30;6.18;;;;;;;24.73;24.28;100838.50;5073934;28;20330;-77
2023/03/16 10:43:56;;;;;;;7.55;6.40;;;;;;;24.44;24.67;100833.13;5078612;28;20213;-76
2023/03/16 10:46:26;;;;;;;7.40;6.15;;;;;;;25.49;23.83;100832.25;5074671;28;20724;-75
2023/03/16 10:48:58;;;;;;;12.95;6.15;;;;;;;25.35;23.68;100825.38;5075958;28;20202;-73
2023/03/16 10:51:30;;;;;;;8.52;5.82;;;;;;;23.96;25.14;100823.09;5073850;28;20222;-74
2023/03/16 10:54:09;;;;;;;7.63;5.82;;;;;;;22.64;26.65;100821.59;5077662;28;20654;-74
2023/03/16 10:56:37;;;;;;;8.45;5.93;;;;;;;22.29;27.48;100832.00;5076255;28;20200;-76
2023/03/16 10:59:16;;;;;;;11.63;6.50;;;;;;;22.50;26.54;100825.44;5076147;28;20309;-72
2023/03/16 11:01:45;;;;;;;8.82;6.38;;;;;;;21.10;27.99;100828.75;5068632;28;20206;-75
2023/03/16 11:04:16;;;;;;;9.00;5.88;;;;;;;20.13;28.98;100828.38;5075636;28;20211;-76
2023/03/16 11:06:54;;;;;;;6.28;5.40;;;;;;;19.39;30.56;100834.34;5077027;28;20233;-77
2023/03/16 11:09:26;;;;;;;6.97;5.77;;;;;;;19.35;30.46;100826.91;5076157;28;20225;-76
2023/03/16 11:11:54;;;;;;;7.70;5.60;;;;;;;18.71;31.79;100824.31;5077133;28;20648;-75
2023/03/16 11:14:27;;;;;;;8.53;5.73;;;;;;;18.25;32.76;100815.75;5080901;28;20199;-75
2023/03/16 11:17:03;;;;;;;13.13;6.47;;;;;;;18.42;32.50;100809.94;5071420;28;20211;-77
2023/03/16 11:19:34;;;;;;;8.73;5.67;;;;;;;18.54;31.61;100806.75;5075989;28;20658;-76
2023/03/16 11:22:10;;;;;;;7.67;5.30;;;;;;;18.17;31.78;100810.47;5076471;28;20287;-76
2023/03/16 11:24:46;;;;;;;8.97;5.43;;;;;;;17.67;33.27;100804.94;5077428;28;20213;-76
2023/03/16 11:27:22;;;;;;;8.43;5.40;;;;;;;17.51;33.66;100796.19;5059247;28;20206;-76
2023/03/16 11:30:04;;;;;;;11.83;6.37;;;;;;;16.86;34.78;100799.56;5059819;28;20551;-75
2023/03/16 11:32:35;;;;;;;9.50;6.60;;;;;;;16.05;36.28;100798.25;5068984;28;20280;-75
2023/03/16 11:35:12;;;;;;;10.80;6.83;;;;;;;15.55;36.86;100797.81;5077145;28;20203;-76
2023/03/16 11:37:54;;;;;;;13.03;6.10;;;;;;;15.05;38.27;100798.88;5073130;28;20303;-76
2023/03/16 11:40:37;;;;;;;10.77;6.57;;;;;;;14.56;38.96;100800.75;5073886;28;20741;-76